sensor_id;sensor_type;location;lat;lon;timestamp;P1;durP1;ratioP1;P2;durP2;ratioP2
53253;SDS011;39148;53.332;6.922;2022-11-12T00:00:46;7.70;;;4.65;;
53253;SDS011;39148;53.332;6.922;2022-11-12T00:03:14;7.90;;;4.20;;
53253;SDS011;39148;53.332;6.922;2022-11-12T00:05:40;6.25;;;4.13;;
53253;SDS011;39148;53.332;6.922;2022-11-12T00:08:05;8.30;;;4.03;;
53253;SDS011;39148;53.332;6.922;2022-11-12T00:10:31;8.15;;;4.80;;
53253;SDS011;39148;53.332;6.922;2022-11-12T00:12:57;8.05;;;4.32;;
53253;SDS011;39148;53.332;6.922;2022-11-12T00:15:23;7.63;;;4.32;;
53253;SDS011;39148;53.332;6.922;2022-11-12T00:17:50;6.85;;;4.20;;
53253;SDS011;39148;53.332;6.922;2022-11-12T00:20:16;6.80;;;4.40;;
53253;SDS011;39148;53.332;6.922;2022-11-12T00:22:42;6.25;;;4.05;;
53253;SDS011;39148;53.332;6.922;2022-11-12T00:25:08;8.02;;;4.60;;
53253;SDS011;39148;53.332;6.922;2022-11-12T00:27:34;7.18;;;4.43;;
53253;SDS011;39148;53.332;6.922;2022-11-12T00:30:00;6.50;;;4.38;;
53253;SDS011;39148;53.332;6.922;2022-11-12T00:32:25;6.80;;;4.25;;
53253;SDS011;39148;53.332;6.922;2022-11-12T00:34:52;7.03;;;4.07;;
53253;SDS011;39148;53.332;6.922;2022-11-12T00:37:18;6.60;;;4.38;;
53253;SDS011;39148;53.332;6.922;2022-11-12T00:39:44;6.88;;;4.05;;
53253;SDS011;39148;53.332;6.922;2022-11-12T00:42:10;7.28;;;4.28;;
53253;SDS011;39148;53.332;6.922;2022-11-12T00:44:36;5.97;;;3.85;;
53253;SDS011;39148;53.332;6.922;2022-11-12T00:47:02;6.88;;;4.03;;
53253;SDS011;39148;53.332;6.922;2022-11-12T00:49:27;5.97;;;4.13;;
53253;SDS011;39148;53.332;6.922;2022-11-12T00:51:53;7.45;;;4.18;;
53253;SDS011;39148;53.332;6.922;2022-11-12T00:54:19;7.40;;;4.13;;
53253;SDS011;39148;53.332;6.922;2022-11-12T00:56:45;5.85;;;3.53;;
53253;SDS011;39148;53.332;6.922;2022-11-12T00:59:12;7.50;;;4.30;;
53253;SDS011;39148;53.332;6.922;2022-11-12T01:01:38;7.15;;;4.20;;
53253;SDS011;39148;53.332;6.922;2022-11-12T01:04:03;6.82;;;4.10;;
53253;SDS011;39148;53.332;6.922;2022-11-12T01:06:29;7.40;;;3.67;;
53253;SDS011;39148;53.332;6.922;2022-11-12T01:08:55;8.27;;;4.68;;
53253;SDS011;39148;53.332;6.922;2022-11-12T01:11:22;6.38;;;3.92;;
53253;SDS011;39148;53.332;6.922;2022-11-12T01:13:54;9.18;;;3.97;;
53253;SDS011;39148;53.332;6.922;2022-11-12T01:16:22;6.22;;;4.30;;
53253;SDS011;39148;53.332;6.922;2022-11-12T01:18:53;6.78;;;4.07;;
53253;SDS011;39148;53.332;6.922;2022-11-12T01:21:21;7.07;;;4.40;;
53253;SDS011;39148;53.332;6.922;2022-11-12T01:23:47;6.80;;;4.38;;
53253;SDS011;39148;53.332;6.922;2022-11-12T01:26:14;6.05;;;4.03;;
53253;SDS011;39148;53.332;6.922;2022-11-12T01:28:42;7.13;;;4.20;;
53253;SDS011;39148;53.332;6.922;2022-11-12T01:33:41;7.78;;;4.22;;
53253;SDS011;39148;53.332;6.922;2022-11-12T01:36:08;8.25;;;4.38;;
53253;SDS011;39148;53.332;6.922;2022-11-12T01:38:35;7.30;;;4.50;;
53253;SDS011;39148;53.332;6.922;2022-11-12T01:41:02;6.93;;;4.40;;
53253;SDS011;39148;53.332;6.922;2022-11-12T01:43:28;7.05;;;4.18;;
53253;SDS011;39148;53.332;6.922;2022-11-12T01:45:54;6.78;;;4.20;;
53253;SDS011;39148;53.332;6.922;2022-11-12T01:50:52;5.95;;;3.97;;
53253;SDS011;39148;53.332;6.922;2022-11-12T01:53:19;7.40;;;4.10;;
53253;SDS011;39148;53.332;6.922;2022-11-12T01:55:47;7.30;;;4.30;;
53253;SDS011;39148;53.332;6.922;2022-11-12T01:58:14;6.72;;;4.18;;
53253;SDS011;39148;53.332;6.922;2022-11-12T02:00:43;6.50;;;4.03;;
53253;SDS011;39148;53.332;6.922;2022-11-12T02:03:18;7.00;;;4.32;;
53253;SDS011;39148;53.332;6.922;2022-11-12T02:05:45;7.93;;;4.10;;
53253;SDS011;39148;53.332;6.922;2022-11-12T02:08:13;6.72;;;4.15;;
53253;SDS011;39148;53.332;6.922;2022-11-12T02:10:39;6.68;;;4.25;;
53253;SDS011;39148;53.332;6.922;2022-11-12T02:13:05;7.00;;;4.32;;
53253;SDS011;39148;53.332;6.922;2022-11-12T02:15:51;9.02;;;4.63;;
53253;SDS011;39148;53.332;6.922;2022-11-12T02:18:17;7.82;;;4.78;;
53253;SDS011;39148;53.332;6.922;2022-11-12T02:20:43;6.32;;;3.80;;
53253;SDS011;39148;53.332;6.922;2022-11-12T02:23:09;7.25;;;5.00;;
53253;SDS011;39148;53.332;6.922;2022-11-12T02:25:35;7.18;;;4.20;;
53253;SDS011;39148;53.332;6.922;2022-11-12T02:28:03;7.70;;;4.43;;
53253;SDS011;39148;53.332;6.922;2022-11-12T02:30:36;6.22;;;4.13;;
53253;SDS011;39148;53.332;6.922;2022-11-12T02:33:04;6.38;;;4.07;;
53253;SDS011;39148;53.332;6.922;2022-11-12T02:35:30;7.85;;;4.72;;
53253;SDS011;39148;53.332;6.922;2022-11-12T02:37:56;7.72;;;4.28;;
53253;SDS011;39148;53.332;6.922;2022-11-12T02:40:22;7.65;;;4.20;;
53253;SDS011;39148;53.332;6.922;2022-11-12T02:42:48;7.00;;;4.35;;
53253;SDS011;39148;53.332;6.922;2022-11-12T02:45:14;8.73;;;4.38;;
53253;SDS011;39148;53.332;6.922;2022-11-12T02:47:40;6.72;;;4.63;;
53253;SDS011;39148;53.332;6.922;2022-11-12T02:50:06;7.68;;;4.50;;
53253;SDS011;39148;53.332;6.922;2022-11-12T02:52:32;7.18;;;4.90;;
53253;SDS011;39148;53.332;6.922;2022-11-12T02:54:59;8.60;;;5.43;;
53253;SDS011;39148;53.332;6.922;2022-11-12T02:57:25;6.35;;;4.32;;
53253;SDS011;39148;53.332;6.922;2022-11-12T02:59:51;8.15;;;4.70;;
53253;SDS011;39148;53.332;6.922;2022-11-12T03:02:17;7.78;;;4.55;;
53253;SDS011;39148;53.332;6.922;2022-11-12T03:04:42;8.88;;;5.10;;
53253;SDS011;39148;53.332;6.922;2022-11-12T03:07:08;6.78;;;4.63;;
53253;SDS011;39148;53.332;6.922;2022-11-12T03:09:34;6.78;;;4.30;;
53253;SDS011;39148;53.332;6.922;2022-11-12T03:12:00;8.07;;;4.93;;
53253;SDS011;39148;53.332;6.922;2022-11-12T03:14:25;7.47;;;4.63;;
53253;SDS011;39148;53.332;6.922;2022-11-12T03:16:51;8.20;;;4.80;;
53253;SDS011;39148;53.332;6.922;2022-11-12T03:19:17;6.68;;;4.65;;
53253;SDS011;39148;53.332;6.922;2022-11-12T03:21:43;8.82;;;5.32;;
53253;SDS011;39148;53.332;6.922;2022-11-12T03:24:08;7.25;;;5.00;;
53253;SDS011;39148;53.332;6.922;2022-11-12T03:26:34;8.75;;;4.80;;
53253;SDS011;39148;53.332;6.922;2022-11-12T03:29:00;8.95;;;4.55;;
53253;SDS011;39148;53.332;6.922;2022-11-12T03:31:26;7.88;;;5.32;;
53253;SDS011;39148;53.332;6.922;2022-11-12T03:33:52;7.03;;;4.65;;
53253;SDS011;39148;53.332;6.922;2022-11-12T03:36:17;8.50;;;4.70;;
53253;SDS011;39148;53.332;6.922;2022-11-12T03:38:43;8.98;;;5.03;;
53253;SDS011;39148;53.332;6.922;2022-11-12T03:41:09;8.38;;;5.28;;
53253;SDS011;39148;53.332;6.922;2022-11-12T03:43:34;8.32;;;5.25;;
53253;SDS011;39148;53.332;6.922;2022-11-12T03:46:00;7.90;;;5.20;;
53253;SDS011;39148;53.332;6.922;2022-11-12T03:48:26;8.30;;;5.43;;
53253;SDS011;39148;53.332;6.922;2022-11-12T03:50:55;8.00;;;5.28;;
53253;SDS011;39148;53.332;6.922;2022-11-12T03:53:22;8.52;;;5.38;;
53253;SDS011;39148;53.332;6.922;2022-11-12T03:55:48;8.10;;;5.60;;
53253;SDS011;39148;53.332;6.922;2022-11-12T03:58:14;7.93;;;5.53;;
53253;SDS011;39148;53.332;6.922;2022-11-12T04:00:39;7.32;;;5.20;;
53253;SDS011;39148;53.332;6.922;2022-11-12T04:03:05;8.55;;;5.35;;
53253;SDS011;39148;53.332;6.922;2022-11-12T04:05:31;8.48;;;5.72;;
53253;SDS011;39148;53.332;6.922;2022-11-12T04:08:17;7.55;;;5.10;;
53253;SDS011;39148;53.332;6.922;2022-11-12T04:11:00;7.60;;;5.00;;
53253;SDS011;39148;53.332;6.922;2022-11-12T04:13:28;8.55;;;5.60;;
53253;SDS011;39148;53.332;6.922;2022-11-12T04:15:55;8.48;;;5.28;;
53253;SDS011;39148;53.332;6.922;2022-11-12T04:18:40;8.35;;;5.45;;
53253;SDS011;39148;53.332;6.922;2022-11-12T04:21:36;8.52;;;5.60;;
53253;SDS011;39148;53.332;6.922;2022-11-12T04:27:01;7.60;;;5.60;;
53253;SDS011;39148;53.332;6.922;2022-11-12T04:29:26;8.32;;;5.22;;
53253;SDS011;39148;53.332;6.922;2022-11-12T04:32:11;7.50;;;5.07;;
53253;SDS011;39148;53.332;6.922;2022-11-12T04:34:37;8.82;;;5.90;;
53253;SDS011;39148;53.332;6.922;2022-11-12T04:37:02;9.73;;;5.50;;
53253;SDS011;39148;53.332;6.922;2022-11-12T04:39:29;8.43;;;5.90;;
53253;SDS011;39148;53.332;6.922;2022-11-12T04:41:55;8.65;;;5.78;;
53253;SDS011;39148;53.332;6.922;2022-11-12T04:44:40;9.45;;;5.55;;
53253;SDS011;39148;53.332;6.922;2022-11-12T04:47:28;8.52;;;5.38;;
53253;SDS011;39148;53.332;6.922;2022-11-12T04:49:54;8.82;;;5.88;;
53253;SDS011;39148;53.332;6.922;2022-11-12T04:52:20;8.48;;;5.25;;
53253;SDS011;39148;53.332;6.922;2022-11-12T04:54:46;7.65;;;5.28;;
53253;SDS011;39148;53.332;6.922;2022-11-12T04:57:12;8.20;;;5.38;;
53253;SDS011;39148;53.332;6.922;2022-11-12T04:59:38;8.52;;;5.47;;
53253;SDS011;39148;53.332;6.922;2022-11-12T05:02:03;9.73;;;5.72;;
53253;SDS011;39148;53.332;6.922;2022-11-12T05:04:29;7.95;;;5.38;;
53253;SDS011;39148;53.332;6.922;2022-11-12T05:06:55;7.78;;;5.47;;
53253;SDS011;39148;53.332;6.922;2022-11-12T05:09:23;7.18;;;5.30;;
53253;SDS011;39148;53.332;6.922;2022-11-12T05:11:51;11.18;;;6.03;;
53253;SDS011;39148;53.332;6.922;2022-11-12T05:14:19;8.25;;;5.50;;
53253;SDS011;39148;53.332;6.922;2022-11-12T05:16:45;8.80;;;6.03;;
53253;SDS011;39148;53.332;6.922;2022-11-12T05:19:12;8.63;;;6.10;;
53253;SDS011;39148;53.332;6.922;2022-11-12T05:21:38;9.07;;;5.78;;
53253;SDS011;39148;53.332;6.922;2022-11-12T05:24:23;8.10;;;5.70;;
53253;SDS011;39148;53.332;6.922;2022-11-12T05:26:48;7.90;;;5.30;;
53253;SDS011;39148;53.332;6.922;2022-11-12T05:29:14;7.30;;;5.18;;
53253;SDS011;39148;53.332;6.922;2022-11-12T05:31:41;7.70;;;5.45;;
53253;SDS011;39148;53.332;6.922;2022-11-12T05:34:07;8.00;;;5.13;;
53253;SDS011;39148;53.332;6.922;2022-11-12T05:36:33;11.77;;;5.97;;
53253;SDS011;39148;53.332;6.922;2022-11-12T05:38:58;9.23;;;5.78;;
53253;SDS011;39148;53.332;6.922;2022-11-12T05:41:24;9.35;;;5.82;;
53253;SDS011;39148;53.332;6.922;2022-11-12T05:43:50;7.68;;;5.13;;
53253;SDS011;39148;53.332;6.922;2022-11-12T05:46:16;8.05;;;5.88;;
53253;SDS011;39148;53.332;6.922;2022-11-12T05:48:42;7.22;;;5.22;;
53253;SDS011;39148;53.332;6.922;2022-11-12T05:51:07;9.52;;;5.97;;
53253;SDS011;39148;53.332;6.922;2022-11-12T05:53:34;8.13;;;5.93;;
53253;SDS011;39148;53.332;6.922;2022-11-12T05:56:02;7.60;;;5.43;;
53253;SDS011;39148;53.332;6.922;2022-11-12T05:58:29;9.30;;;5.93;;
53253;SDS011;39148;53.332;6.922;2022-11-12T06:00:56;9.98;;;5.70;;
53253;SDS011;39148;53.332;6.922;2022-11-12T06:03:23;8.50;;;5.82;;
53253;SDS011;39148;53.332;6.922;2022-11-12T06:05:49;8.18;;;5.88;;
53253;SDS011;39148;53.332;6.922;2022-11-12T06:08:15;8.50;;;5.40;;
53253;SDS011;39148;53.332;6.922;2022-11-12T06:10:41;8.63;;;5.13;;
53253;SDS011;39148;53.332;6.922;2022-11-12T06:13:07;9.55;;;6.03;;
53253;SDS011;39148;53.332;6.922;2022-11-12T06:15:33;8.55;;;6.00;;
53253;SDS011;39148;53.332;6.922;2022-11-12T06:17:59;10.57;;;5.28;;
53253;SDS011;39148;53.332;6.922;2022-11-12T06:20:24;7.78;;;5.30;;
53253;SDS011;39148;53.332;6.922;2022-11-12T06:22:50;7.63;;;5.68;;
53253;SDS011;39148;53.332;6.922;2022-11-12T06:25:16;10.35;;;6.10;;
53253;SDS011;39148;53.332;6.922;2022-11-12T06:27:42;8.88;;;5.88;;
53253;SDS011;39148;53.332;6.922;2022-11-12T06:30:08;7.82;;;5.30;;
53253;SDS011;39148;53.332;6.922;2022-11-12T06:32:34;9.70;;;5.93;;
53253;SDS011;39148;53.332;6.922;2022-11-12T06:35:00;7.90;;;5.47;;
53253;SDS011;39148;53.332;6.922;2022-11-12T06:37:26;7.75;;;5.07;;
53253;SDS011;39148;53.332;6.922;2022-11-12T06:39:52;8.32;;;5.45;;
53253;SDS011;39148;53.332;6.922;2022-11-12T06:42:18;8.60;;;5.72;;
53253;SDS011;39148;53.332;6.922;2022-11-12T06:44:44;8.45;;;5.68;;
53253;SDS011;39148;53.332;6.922;2022-11-12T06:47:10;8.65;;;4.53;;
53253;SDS011;39148;53.332;6.922;2022-11-12T06:49:36;8.25;;;5.45;;
53253;SDS011;39148;53.332;6.922;2022-11-12T06:52:02;7.38;;;5.07;;
53253;SDS011;39148;53.332;6.922;2022-11-12T06:54:27;9.32;;;5.18;;
53253;SDS011;39148;53.332;6.922;2022-11-12T06:56:53;7.63;;;5.10;;
53253;SDS011;39148;53.332;6.922;2022-11-12T06:59:19;7.10;;;4.85;;
53253;SDS011;39148;53.332;6.922;2022-11-12T07:01:44;8.35;;;5.00;;
53253;SDS011;39148;53.332;6.922;2022-11-12T07:04:10;8.40;;;5.30;;
53253;SDS011;39148;53.332;6.922;2022-11-12T07:06:36;7.63;;;5.10;;
53253;SDS011;39148;53.332;6.922;2022-11-12T07:09:02;7.43;;;4.90;;
53253;SDS011;39148;53.332;6.922;2022-11-12T07:11:29;7.85;;;4.65;;
53253;SDS011;39148;53.332;6.922;2022-11-12T07:13:54;8.77;;;5.22;;
53253;SDS011;39148;53.332;6.922;2022-11-12T07:16:20;8.95;;;5.00;;
53253;SDS011;39148;53.332;6.922;2022-11-12T07:18:47;7.18;;;4.75;;
53253;SDS011;39148;53.332;6.922;2022-11-12T07:21:18;7.90;;;4.88;;
53253;SDS011;39148;53.332;6.922;2022-11-12T07:23:44;8.38;;;4.78;;
53253;SDS011;39148;53.332;6.922;2022-11-12T07:26:12;8.65;;;4.93;;
53253;SDS011;39148;53.332;6.922;2022-11-12T07:28:40;9.68;;;4.57;;
53253;SDS011;39148;53.332;6.922;2022-11-12T07:31:07;7.95;;;5.03;;
53253;SDS011;39148;53.332;6.922;2022-11-12T07:33:35;7.43;;;4.78;;
53253;SDS011;39148;53.332;6.922;2022-11-12T07:36:02;7.72;;;4.55;;
53253;SDS011;39148;53.332;6.922;2022-11-12T07:38:29;8.57;;;4.80;;
53253;SDS011;39148;53.332;6.922;2022-11-12T07:40:59;10.90;;;4.72;;
53253;SDS011;39148;53.332;6.922;2022-11-12T07:43:26;7.15;;;4.38;;
53253;SDS011;39148;53.332;6.922;2022-11-12T07:46:03;8.10;;;4.55;;
53253;SDS011;39148;53.332;6.922;2022-11-12T07:48:30;6.05;;;4.03;;
53253;SDS011;39148;53.332;6.922;2022-11-12T07:51:00;7.00;;;4.32;;
53253;SDS011;39148;53.332;6.922;2022-11-12T07:53:28;7.75;;;4.38;;
53253;SDS011;39148;53.332;6.922;2022-11-12T07:55:54;10.43;;;5.25;;
53253;SDS011;39148;53.332;6.922;2022-11-12T07:58:22;7.20;;;4.25;;
53253;SDS011;39148;53.332;6.922;2022-11-12T08:00:49;7.60;;;4.35;;
53253;SDS011;39148;53.332;6.922;2022-11-12T08:03:15;8.55;;;4.32;;
53253;SDS011;39148;53.332;6.922;2022-11-12T08:05:41;6.82;;;4.03;;
53253;SDS011;39148;53.332;6.922;2022-11-12T08:08:07;8.32;;;4.60;;
53253;SDS011;39148;53.332;6.922;2022-11-12T08:10:33;8.02;;;4.65;;
53253;SDS011;39148;53.332;6.922;2022-11-12T08:12:59;8.48;;;4.28;;
53253;SDS011;39148;53.332;6.922;2022-11-12T08:15:25;7.82;;;4.50;;
53253;SDS011;39148;53.332;6.922;2022-11-12T08:17:51;8.77;;;4.32;;
53253;SDS011;39148;53.332;6.922;2022-11-12T08:20:16;7.57;;;4.75;;
53253;SDS011;39148;53.332;6.922;2022-11-12T08:22:42;7.78;;;4.50;;
53253;SDS011;39148;53.332;6.922;2022-11-12T08:25:08;8.85;;;4.18;;
53253;SDS011;39148;53.332;6.922;2022-11-12T08:27:34;7.55;;;4.60;;
53253;SDS011;39148;53.332;6.922;2022-11-12T08:30:00;8.40;;;4.68;;
53253;SDS011;39148;53.332;6.922;2022-11-12T08:32:26;8.90;;;5.03;;
53253;SDS011;39148;53.332;6.922;2022-11-12T08:34:52;8.07;;;4.88;;
53253;SDS011;39148;53.332;6.922;2022-11-12T08:37:17;9.15;;;4.70;;
53253;SDS011;39148;53.332;6.922;2022-11-12T08:39:43;9.98;;;4.75;;
53253;SDS011;39148;53.332;6.922;2022-11-12T08:42:09;8.85;;;4.97;;
53253;SDS011;39148;53.332;6.922;2022-11-12T08:44:35;9.35;;;5.10;;
53253;SDS011;39148;53.332;6.922;2022-11-12T08:47:01;9.60;;;5.13;;
53253;SDS011;39148;53.332;6.922;2022-11-12T08:49:26;9.15;;;5.05;;
53253;SDS011;39148;53.332;6.922;2022-11-12T08:51:53;10.77;;;5.88;;
53253;SDS011;39148;53.332;6.922;2022-11-12T08:54:19;8.48;;;5.18;;
53253;SDS011;39148;53.332;6.922;2022-11-12T08:56:45;7.88;;;5.10;;
53253;SDS011;39148;53.332;6.922;2022-11-12T08:59:11;8.63;;;5.30;;
53253;SDS011;39148;53.332;6.922;2022-11-12T09:01:36;8.32;;;5.15;;
53253;SDS011;39148;53.332;6.922;2022-11-12T09:04:02;9.07;;;5.97;;
53253;SDS011;39148;53.332;6.922;2022-11-12T09:06:28;9.75;;;5.82;;
53253;SDS011;39148;53.332;6.922;2022-11-12T09:08:54;8.63;;;5.63;;
53253;SDS011;39148;53.332;6.922;2022-11-12T09:11:20;10.60;;;6.05;;
53253;SDS011;39148;53.332;6.922;2022-11-12T09:13:46;8.73;;;5.43;;
53253;SDS011;39148;53.332;6.922;2022-11-12T09:16:12;10.02;;;6.10;;
53253;SDS011;39148;53.332;6.922;2022-11-12T09:18:38;8.93;;;5.65;;
53253;SDS011;39148;53.332;6.922;2022-11-12T09:21:05;9.93;;;6.00;;
53253;SDS011;39148;53.332;6.922;2022-11-12T09:23:33;8.75;;;5.85;;
53253;SDS011;39148;53.332;6.922;2022-11-12T09:25:59;8.00;;;5.50;;
53253;SDS011;39148;53.332;6.922;2022-11-12T09:28:25;9.68;;;5.85;;
53253;SDS011;39148;53.332;6.922;2022-11-12T09:30:51;9.07;;;6.15;;
53253;SDS011;39148;53.332;6.922;2022-11-12T09:33:21;9.77;;;6.13;;
53253;SDS011;39148;53.332;6.922;2022-11-12T09:35:49;9.52;;;6.50;;
53253;SDS011;39148;53.332;6.922;2022-11-12T09:38:16;9.20;;;6.40;;
53253;SDS011;39148;53.332;6.922;2022-11-12T09:43:09;9.82;;;6.60;;
53253;SDS011;39148;53.332;6.922;2022-11-12T09:45:41;8.93;;;6.35;;
53253;SDS011;39148;53.332;6.922;2022-11-12T09:48:07;9.15;;;6.20;;
53253;SDS011;39148;53.332;6.922;2022-11-12T09:50:38;10.18;;;6.72;;
53253;SDS011;39148;53.332;6.922;2022-11-12T09:55:42;10.43;;;6.75;;
53253;SDS011;39148;53.332;6.922;2022-11-12T09:58:11;10.57;;;7.00;;
53253;SDS011;39148;53.332;6.922;2022-11-12T10:00:42;10.07;;;6.95;;
53253;SDS011;39148;53.332;6.922;2022-11-12T10:03:33;9.85;;;6.90;;
53253;SDS011;39148;53.332;6.922;2022-11-12T10:06:02;10.10;;;6.55;;
53253;SDS011;39148;53.332;6.922;2022-11-12T10:11:24;9.30;;;6.40;;
53253;SDS011;39148;53.332;6.922;2022-11-12T10:18:12;10.50;;;6.72;;
53253;SDS011;39148;53.332;6.922;2022-11-12T10:20:51;11.13;;;7.22;;
53253;SDS011;39148;53.332;6.922;2022-11-12T10:23:19;10.35;;;6.90;;
53253;SDS011;39148;53.332;6.922;2022-11-12T10:25:50;9.10;;;6.25;;
53253;SDS011;39148;53.332;6.922;2022-11-12T10:33:42;10.43;;;7.03;;
53253;SDS011;39148;53.332;6.922;2022-11-12T10:38:50;11.48;;;7.07;;
53253;SDS011;39148;53.332;6.922;2022-11-12T10:43:52;10.45;;;7.20;;
53253;SDS011;39148;53.332;6.922;2022-11-12T10:46:26;12.15;;;7.28;;
53253;SDS011;39148;53.332;6.922;2022-11-12T10:48:59;11.32;;;7.20;;
53253;SDS011;39148;53.332;6.922;2022-11-12T10:51:28;10.25;;;6.97;;
53253;SDS011;39148;53.332;6.922;2022-11-12T10:53:58;11.38;;;7.25;;
53253;SDS011;39148;53.332;6.922;2022-11-12T10:56:25;11.63;;;7.72;;
53253;SDS011;39148;53.332;6.922;2022-11-12T10:59:08;11.80;;;8.10;;
53253;SDS011;39148;53.332;6.922;2022-11-12T11:01:38;12.05;;;8.00;;
53253;SDS011;39148;53.332;6.922;2022-11-12T11:04:04;10.90;;;7.28;;
53253;SDS011;39148;53.332;6.922;2022-11-12T11:06:39;12.15;;;7.70;;
53253;SDS011;39148;53.332;6.922;2022-11-12T11:11:37;12.10;;;8.25;;
53253;SDS011;39148;53.332;6.922;2022-11-12T11:16:48;13.13;;;8.82;;
53253;SDS011;39148;53.332;6.922;2022-11-12T11:19:15;12.15;;;8.10;;
53253;SDS011;39148;53.332;6.922;2022-11-12T11:27:07;12.65;;;8.73;;
53253;SDS011;39148;53.332;6.922;2022-11-12T11:30:11;11.70;;;8.68;;
53253;SDS011;39148;53.332;6.922;2022-11-12T11:41:36;13.10;;;8.98;;
53253;SDS011;39148;53.332;6.922;2022-11-12T11:44:05;12.32;;;8.85;;
53253;SDS011;39148;53.332;6.922;2022-11-12T12:00:41;13.93;;;9.70;;
53253;SDS011;39148;53.332;6.922;2022-11-12T12:03:16;14.80;;;10.18;;
53253;SDS011;39148;53.332;6.922;2022-11-12T12:08:14;14.90;;;9.68;;
53253;SDS011;39148;53.332;6.922;2022-11-12T12:13:18;14.60;;;10.43;;
53253;SDS011;39148;53.332;6.922;2022-11-12T12:16:13;13.70;;;9.57;;
53253;SDS011;39148;53.332;6.922;2022-11-12T12:21:33;14.43;;;9.48;;
53253;SDS011;39148;53.332;6.922;2022-11-12T12:24:22;14.70;;;10.07;;
53253;SDS011;39148;53.332;6.922;2022-11-12T12:27:24;13.82;;;9.75;;
53253;SDS011;39148;53.332;6.922;2022-11-12T12:29:57;13.27;;;9.50;;
53253;SDS011;39148;53.332;6.922;2022-11-12T12:32:45;13.77;;;9.80;;
53253;SDS011;39148;53.332;6.922;2022-11-12T12:35:26;15.07;;;10.35;;
53253;SDS011;39148;53.332;6.922;2022-11-12T12:40:38;14.70;;;9.90;;
53253;SDS011;39148;53.332;6.922;2022-11-12T12:43:13;14.10;;;10.10;;
53253;SDS011;39148;53.332;6.922;2022-11-12T12:45:46;14.60;;;10.40;;
53253;SDS011;39148;53.332;6.922;2022-11-12T12:50:38;15.35;;;10.75;;
53253;SDS011;39148;53.332;6.922;2022-11-12T12:55:41;14.32;;;10.23;;
53253;SDS011;39148;53.332;6.922;2022-11-12T12:58:28;12.80;;;9.48;;
53253;SDS011;39148;53.332;6.922;2022-11-12T13:00:58;14.30;;;10.75;;
53253;SDS011;39148;53.332;6.922;2022-11-12T13:08:40;15.43;;;10.50;;
53253;SDS011;39148;53.332;6.922;2022-11-12T13:11:06;14.40;;;10.38;;
53253;SDS011;39148;53.332;6.922;2022-11-12T13:13:35;15.25;;;11.00;;
53253;SDS011;39148;53.332;6.922;2022-11-12T13:16:02;15.05;;;10.77;;
53253;SDS011;39148;53.332;6.922;2022-11-12T13:21:10;13.77;;;10.15;;
53253;SDS011;39148;53.332;6.922;2022-11-12T13:23:45;12.90;;;9.40;;
53253;SDS011;39148;53.332;6.922;2022-11-12T13:26:43;14.57;;;10.38;;
53253;SDS011;39148;53.332;6.922;2022-11-12T13:35:11;13.15;;;9.52;;
53253;SDS011;39148;53.332;6.922;2022-11-12T13:37:46;14.23;;;10.05;;
53253;SDS011;39148;53.332;6.922;2022-11-12T13:40:15;14.20;;;9.85;;
53253;SDS011;39148;53.332;6.922;2022-11-12T13:42:54;13.68;;;10.23;;
53253;SDS011;39148;53.332;6.922;2022-11-12T13:45:24;14.05;;;10.52;;
53253;SDS011;39148;53.332;6.922;2022-11-12T13:47:51;12.73;;;9.63;;
53253;SDS011;39148;53.332;6.922;2022-11-12T13:50:21;13.20;;;9.73;;
53253;SDS011;39148;53.332;6.922;2022-11-12T13:52:48;15.07;;;9.57;;
53253;SDS011;39148;53.332;6.922;2022-11-12T13:57:40;13.60;;;9.77;;
53253;SDS011;39148;53.332;6.922;2022-11-12T14:02:41;11.40;;;8.73;;
53253;SDS011;39148;53.332;6.922;2022-11-12T14:05:16;11.40;;;8.57;;
53253;SDS011;39148;53.332;6.922;2022-11-12T14:10:36;12.40;;;9.27;;
53253;SDS011;39148;53.332;6.922;2022-11-12T14:21:05;10.98;;;8.60;;
53253;SDS011;39148;53.332;6.922;2022-11-12T14:23:38;11.30;;;8.05;;
53253;SDS011;39148;53.332;6.922;2022-11-12T14:26:04;11.95;;;8.35;;
53253;SDS011;39148;53.332;6.922;2022-11-12T14:28:33;11.20;;;8.43;;
53253;SDS011;39148;53.332;6.922;2022-11-12T14:31:01;11.52;;;8.23;;
53253;SDS011;39148;53.332;6.922;2022-11-12T14:33:28;11.77;;;8.45;;
53253;SDS011;39148;53.332;6.922;2022-11-12T14:36:04;12.80;;;8.43;;
53253;SDS011;39148;53.332;6.922;2022-11-12T14:38:36;11.57;;;8.32;;
53253;SDS011;39148;53.332;6.922;2022-11-12T14:41:09;11.88;;;8.27;;
53253;SDS011;39148;53.332;6.922;2022-11-12T14:43:43;10.90;;;8.25;;
53253;SDS011;39148;53.332;6.922;2022-11-12T14:46:25;10.27;;;7.93;;
53253;SDS011;39148;53.332;6.922;2022-11-12T14:51:38;11.25;;;7.88;;
53253;SDS011;39148;53.332;6.922;2022-11-12T14:54:22;11.65;;;7.45;;
53253;SDS011;39148;53.332;6.922;2022-11-12T14:56:55;12.07;;;8.00;;
53253;SDS011;39148;53.332;6.922;2022-11-12T14:59:25;10.77;;;7.40;;
53253;SDS011;39148;53.332;6.922;2022-11-12T15:02:01;10.77;;;7.63;;
53253;SDS011;39148;53.332;6.922;2022-11-12T15:04:43;10.85;;;7.72;;
53253;SDS011;39148;53.332;6.922;2022-11-12T15:07:28;12.07;;;7.22;;
53253;SDS011;39148;53.332;6.922;2022-11-12T15:09:54;9.45;;;6.97;;
53253;SDS011;39148;53.332;6.922;2022-11-12T15:12:22;11.77;;;7.47;;
53253;SDS011;39148;53.332;6.922;2022-11-12T15:15:29;11.52;;;7.43;;
53253;SDS011;39148;53.332;6.922;2022-11-12T15:17:54;11.65;;;7.85;;
53253;SDS011;39148;53.332;6.922;2022-11-12T15:20:22;10.65;;;7.47;;
53253;SDS011;39148;53.332;6.922;2022-11-12T15:22:49;10.27;;;6.85;;
53253;SDS011;39148;53.332;6.922;2022-11-12T15:27:48;11.70;;;7.15;;
53253;SDS011;39148;53.332;6.922;2022-11-12T15:30:19;11.38;;;7.47;;
53253;SDS011;39148;53.332;6.922;2022-11-12T15:38:09;11.88;;;6.70;;
53253;SDS011;39148;53.332;6.922;2022-11-12T15:40:57;11.07;;;7.30;;
53253;SDS011;39148;53.332;6.922;2022-11-12T15:43:24;9.85;;;7.10;;
53253;SDS011;39148;53.332;6.922;2022-11-12T15:45:53;10.45;;;7.45;;
53253;SDS011;39148;53.332;6.922;2022-11-12T15:48:20;8.85;;;6.53;;
53253;SDS011;39148;53.332;6.922;2022-11-12T15:50:46;10.77;;;7.65;;
53253;SDS011;39148;53.332;6.922;2022-11-12T15:53:13;10.82;;;7.85;;
53253;SDS011;39148;53.332;6.922;2022-11-12T15:55:39;11.13;;;6.88;;
53253;SDS011;39148;53.332;6.922;2022-11-12T15:58:06;10.20;;;6.82;;
53253;SDS011;39148;53.332;6.922;2022-11-12T16:00:42;9.95;;;7.10;;
53253;SDS011;39148;53.332;6.922;2022-11-12T16:03:14;11.18;;;7.38;;
53253;SDS011;39148;53.332;6.922;2022-11-12T16:05:40;9.73;;;6.72;;
53253;SDS011;39148;53.332;6.922;2022-11-12T16:08:06;9.40;;;6.25;;
53253;SDS011;39148;53.332;6.922;2022-11-12T16:10:32;9.77;;;6.78;;
53253;SDS011;39148;53.332;6.922;2022-11-12T16:12:59;10.27;;;7.07;;
53253;SDS011;39148;53.332;6.922;2022-11-12T16:15:26;10.32;;;7.03;;
53253;SDS011;39148;53.332;6.922;2022-11-12T16:17:52;11.52;;;7.28;;
53253;SDS011;39148;53.332;6.922;2022-11-12T16:20:30;9.02;;;6.45;;
53253;SDS011;39148;53.332;6.922;2022-11-12T16:22:57;9.30;;;6.38;;
53253;SDS011;39148;53.332;6.922;2022-11-12T16:25:24;11.43;;;6.70;;
53253;SDS011;39148;53.332;6.922;2022-11-12T16:27:53;9.73;;;6.78;;
53253;SDS011;39148;53.332;6.922;2022-11-12T16:30:21;11.25;;;6.85;;
53253;SDS011;39148;53.332;6.922;2022-11-12T16:32:48;8.73;;;6.55;;
53253;SDS011;39148;53.332;6.922;2022-11-12T16:35:14;8.90;;;6.40;;
53253;SDS011;39148;53.332;6.922;2022-11-12T16:37:41;9.05;;;6.57;;
53253;SDS011;39148;53.332;6.922;2022-11-12T16:40:11;10.20;;;6.68;;
53253;SDS011;39148;53.332;6.922;2022-11-12T16:42:39;10.17;;;6.90;;
53253;SDS011;39148;53.332;6.922;2022-11-12T16:45:10;10.45;;;6.50;;
53253;SDS011;39148;53.332;6.922;2022-11-12T16:47:41;10.38;;;6.90;;
53253;SDS011;39148;53.332;6.922;2022-11-12T16:50:12;9.35;;;6.00;;
53253;SDS011;39148;53.332;6.922;2022-11-12T16:52:39;8.70;;;6.80;;